Time;durP1;ratioP1;P1;durP2;ratioP2;P2;SDS_P1;SDS_P2;PMS_P1;PMS_P2;Temp;Humidity;BMP_temperature;BMP_pressure;BME280_temperature;BME280_humidity;BME280_pressure;Samples;Min_cycle;Max_cycle;Signal;HPM_P1;HPM_P2
2021/09/14 00:01:38;;;;;;;8.00;7.20;;;18.00;71.40;;;;;;5055828;28;20032;-85
2021/09/14 00:04:05;;;;;;;7.95;7.18;;;18.00;71.40;;;;;;5071420;28;20075;-84
2021/09/14 00:06:34;;;;;;;8.07;7.00;;;18.00;71.50;;;;;;5066860;28;20047;-86
2021/09/14 00:08:59;;;;;;;7.53;6.82;;;18.00;71.60;;;;;;5065321;28;20032;-84
2021/09/14 00:11:25;;;;;;;10.10;7.10;;;18.00;71.60;;;;;;5036864;28;20051;-85
2021/09/14 00:13:51;;;;;;;8.15;7.38;;;17.90;71.40;;;;;;5051655;28;20037;-83
2021/09/14 00:16:17;;;;;;;8.52;7.13;;;17.90;71.50;;;;;;5034834;28;20068;-83
2021/09/14 00:18:43;;;;;;;8.07;6.95;;;17.90;71.50;;;;;;5040894;28;20025;-85
2021/09/14 00:21:10;;;;;;;7.90;7.20;;;17.90;71.60;;;;;;5018008;28;20075;-83
2021/09/14 00:23:36;;;;;;;8.48;7.60;;;17.90;71.60;;;;;;5069173;28;20436;-85
2021/09/14 00:26:02;;;;;;;10.32;7.00;;;17.90;71.60;;;;;;5069586;28;20183;-84
2021/09/14 00:28:28;;;;;;;7.50;6.75;;;17.90;71.70;;;;;;5051515;28;20486;-85
2021/09/14 00:30:54;;;;;;;10.00;7.47;;;17.80;71.60;;;;;;5051243;28;20032;-87
2021/09/14 00:33:21;;;;;;;8.43;7.03;;;17.90;71.80;;;;;;5034474;28;20063;-86
2021/09/14 00:35:47;;;;;;;7.28;6.65;;;17.90;71.80;;;;;;5051311;28;20098;-85
2021/09/14 00:38:13;;;;;;;10.35;6.95;;;17.90;71.80;;;;;;5051082;28;20430;-85
2021/09/14 00:40:39;;;;;;;7.95;7.15;;;17.90;71.90;;;;;;5051513;28;20041;-86
2021/09/14 00:43:05;;;;;;;7.88;6.85;;;17.90;71.90;;;;;;5050274;28;20053;-85
2021/09/14 00:45:31;;;;;;;8.27;6.95;;;17.80;71.70;;;;;;5051017;28;20040;-85
2021/09/14 00:47:57;;;;;;;9.73;7.25;;;17.90;72.00;;;;;;5050511;28;20052;-86
2021/09/14 00:50:24;;;;;;;7.80;6.72;;;17.90;72.00;;;;;;5034098;28;20116;-85
2021/09/14 00:52:50;;;;;;;10.32;7.20;;;17.90;72.00;;;;;;5050154;28;20029;-84
2021/09/14 00:55:17;;;;;;;7.93;7.15;;;17.80;71.90;;;;;;5050494;28;20051;-85
2021/09/14 00:57:43;;;;;;;9.00;7.18;;;17.80;71.90;;;;;;5050960;28;20036;-86
2021/09/14 01:00:09;;;;;;;9.13;7.05;;;17.90;72.10;;;;;;5050978;28;20249;-84
2021/09/14 01:02:35;;;;;;;7.32;6.68;;;17.80;72.00;;;;;;5050818;28;20025;-85
2021/09/14 01:05:03;;;;;;;6.55;5.80;;;17.80;72.00;;;;;;5033472;28;20093;-83
2021/09/14 01:07:31;;;;;;;8.13;6.57;;;17.80;72.10;;;;;;5050359;28;20056;-84
2021/09/14 01:09:59;;;;;;;7.25;6.38;;;17.80;72.10;;;;;;5051654;28;20064;-84
2021/09/14 01:12:26;;;;;;;8.68;7.35;;;17.80;72.10;;;;;;5030740;28;20090;-87
2021/09/14 01:14:55;;;;;;;7.90;6.57;;;17.80;72.10;;;;;;5048816;28;20048;-86
2021/09/14 01:17:21;;;;;;;7.65;6.88;;;17.80;72.20;;;;;;5035632;28;20468;-86
2021/09/14 01:19:47;;;;;;;9.68;7.50;;;17.80;72.20;;;;;;5019361;28;20047;-85
2021/09/14 01:22:15;;;;;;;10.15;7.20;;;17.80;72.30;;;;;;5014234;28;20029;-85
2021/09/14 01:24:42;;;;;;;7.70;6.70;;;17.80;72.30;;;;;;5063951;28;20036;-86
2021/09/14 01:27:08;;;;;;;8.98;7.18;;;17.80;72.30;;;;;;5050478;28;20079;-83
2021/09/14 01:32:28;;;;;;;8.02;7.22;;;17.70;72.10;;;;;;5018634;28;20088;-85
2021/09/14 01:34:55;;;;;;;10.60;7.88;;;17.70;72.20;;;;;;4994682;28;20029;-86
2021/09/14 01:37:22;;;;;;;10.90;8.35;;;17.70;72.20;;;;;;4995571;28;20029;-86
2021/09/14 01:39:49;;;;;;;8.15;7.35;;;17.70;72.30;;;;;;5041956;28;20040;-87
2021/09/14 01:42:16;;;;;;;11.05;7.88;;;17.70;72.30;;;;;;5035067;28;20033;-85
2021/09/14 01:44:41;;;;;;;8.05;7.25;;;17.70;72.30;;;;;;5034223;28;20036;-84
2021/09/14 01:47:08;;;;;;;13.18;6.70;;;17.70;72.30;;;;;;5023630;28;20409;-85
2021/09/14 01:49:34;;;;;;;8.57;7.68;;;17.70;72.40;;;;;;5029214;28;20480;-89
2021/09/14 01:52:01;;;;;;;9.40;7.38;;;17.60;72.20;;;;;;5033882;28;20025;-86
2021/09/14 01:54:28;;;;;;;8.65;7.80;;;17.70;72.40;;;;;;5050278;28;20033;-87
2021/09/14 01:56:54;;;;;;;9.13;8.23;;;17.70;72.40;;;;;;5051695;28;20037;-88
2021/09/14 01:59:20;;;;;;;9.27;8.02;;;17.60;72.30;;;;;;5034095;28;20429;-87
2021/09/14 02:01:59;;;;;;;9.65;7.80;;;17.60;72.30;;;;;;5033806;28;20040;-87
2021/09/14 02:43:57;;;;;;;12.90;8.88;;;17.40;72.30;;;;;;5054027;28;20485;-85
2021/09/14 02:59:35;;;;;;;8.95;8.02;;;17.40;72.40;;;;;;5052603;28;20025;-84
2021/09/14 03:02:03;;;;;;;10.43;8.45;;;17.40;72.40;;;;;;5019906;28;20120;-83
2021/09/14 03:04:29;;;;;;;11.23;9.07;;;17.40;72.50;;;;;;5035476;28;20523;-82
2021/09/14 03:06:55;;;;;;;10.30;8.63;;;17.40;72.50;;;;;;5035481;28;20074;-84
2021/09/14 03:09:30;;;;;;;13.38;8.23;;;17.40;72.50;;;;;;5036010;28;20167;-85
2021/09/14 03:11:56;;;;;;;9.32;8.35;;;17.30;72.30;;;;;;5036246;28;20067;-83
2021/09/14 03:14:22;;;;;;;11.27;8.20;;;17.30;72.40;;;;;;5035808;28;20029;-85
2021/09/14 03:16:48;;;;;;;9.40;8.13;;;17.30;72.40;;;;;;5019343;28;20044;-85
2021/09/14 03:19:14;;;;;;;12.88;9.20;;;17.30;72.40;;;;;;5036672;28;20378;-86
2021/09/14 03:21:40;;;;;;;11.60;8.85;;;17.30;72.50;;;;;;5036265;28;20161;-85
2021/09/14 03:24:09;;;;;;;11.32;9.60;;;17.30;72.50;;;;;;5052960;28;20061;-85
2021/09/14 03:26:35;;;;;;;9.27;8.18;;;17.30;72.50;;;;;;5036395;28;20064;-84
2021/09/14 03:29:03;;;;;;;11.20;8.10;;;17.30;72.60;;;;;;5044503;28;20123;-84
2021/09/14 03:31:39;;;;;;;10.98;8.63;;;17.20;72.40;;;;;;5055679;28;20029;-86
2021/09/14 03:34:05;;;;;;;10.38;9.32;;;17.30;72.60;;;;;;5055023;28;20023;-86
2021/09/14 03:36:31;;;;;;;9.45;8.43;;;17.20;72.40;;;;;;5055863;28;20060;-85
2021/09/14 03:38:58;;;;;;;10.40;9.02;;;17.20;72.50;;;;;;5048415;28;20465;-84
2021/09/14 03:41:24;;;;;;;9.77;8.73;;;17.20;72.50;;;;;;5037600;28;20029;-86
2021/09/14 03:43:51;;;;;;;10.05;9.07;;;17.20;72.50;;;;;;5036963;28;20025;-86
2021/09/14 03:46:19;;;;;;;8.70;7.57;;;17.20;72.50;;;;;;5035745;28;20082;-85
2021/09/14 03:48:45;;;;;;;13.90;8.80;;;17.20;72.60;;;;;;5052418;28;20127;-87
2021/09/14 03:51:11;;;;;;;11.63;8.85;;;17.20;72.60;;;;;;5036008;28;20036;-85
2021/09/14 03:53:37;;;;;;;10.48;8.75;;;17.20;72.60;;;;;;5052516;28;20028;-86
2021/09/14 03:56:04;;;;;;;9.57;8.40;;;17.20;72.60;;;;;;5019450;28;20379;-86
2021/09/14 03:58:35;;;;;;;11.45;9.25;;;17.20;72.60;;;;;;5035701;28;20083;-86
2021/09/14 04:01:02;;;;;;;11.05;8.43;;;17.20;72.70;;;;;;5035042;28;20071;-86
2021/09/14 04:11:15;;;;;;;10.60;8.45;;;17.20;72.70;;;;;;5052331;28;20132;-84
2021/09/14 04:13:41;;;;;;;10.07;8.63;;;17.20;72.70;;;;;;5051968;28;20418;-84
2021/09/14 04:16:07;;;;;;;10.23;8.90;;;17.20;72.70;;;;;;5035737;28;20135;-85
2021/09/14 04:18:34;;;;;;;13.23;9.57;;;17.20;72.70;;;;;;5049855;28;20289;-85
2021/09/14 04:21:00;;;;;;;10.30;9.30;;;17.20;72.80;;;;;;5038019;28;20064;-84
2021/09/14 04:23:26;;;;;;;10.48;8.75;;;17.10;72.60;;;;;;5038296;28;20422;-86
2021/09/14 04:25:52;;;;;;;9.90;8.95;;;17.10;72.60;;;;;;5038258;28;20499;-84
2021/09/14 04:28:18;;;;;;;10.27;9.20;;;17.10;72.60;;;;;;5038444;28;20115;-86
2021/09/14 04:30:44;;;;;;;10.35;8.85;;;17.10;72.70;;;;;;5037766;28;20079;-86
2021/09/14 04:33:10;;;;;;;10.93;8.95;;;17.00;72.50;;;;;;5038211;28;20032;-86
2021/09/14 04:35:36;;;;;;;12.75;9.40;;;17.10;72.70;;;;;;5054971;28;20435;-85
2021/09/14 04:38:03;;;;;;;10.63;9.63;;;17.10;72.80;;;;;;5073091;28;20074;-86
2021/09/14 04:40:31;;;;;;;9.70;8.70;;;17.00;72.60;;;;;;5055245;28;20047;-86
2021/09/14 04:42:57;;;;;;;11.25;9.90;;;17.10;72.80;;;;;;5038699;28;20447;-85
2021/09/14 04:45:23;;;;;;;11.63;9.52;;;17.00;72.70;;;;;;5054990;28;20052;-86
2021/09/14 04:47:50;;;;;;;9.85;8.70;;;17.10;72.90;;;;;;5054807;28;20079;-85
2021/09/14 04:50:16;;;;;;;10.57;9.45;;;17.00;72.70;;;;;;4996390;28;20507;-86
2021/09/14 04:52:44;;;;;;;9.73;8.82;;;17.00;72.80;;;;;;5012511;28;20068;-84
2021/09/14 04:55:10;;;;;;;12.55;8.90;;;17.00;72.80;;;;;;5011657;28;20045;-85
2021/09/14 04:57:36;;;;;;;9.32;8.43;;;17.00;72.80;;;;;;5017270;28;20434;-85
2021/09/14 05:00:05;;;;;;;9.20;8.30;;;17.00;72.80;;;;;;5034453;28;20028;-85
2021/09/14 05:02:33;;;;;;;10.07;8.40;;;17.00;72.90;;;;;;5021049;28;20104;-86
2021/09/14 05:04:59;;;;;;;11.07;8.43;;;17.10;73.10;;;;;;5029288;28;20033;-84
2021/09/14 05:07:27;;;;;;;9.27;8.35;;;17.00;72.90;;;;;;5007822;28;20025;-83
2021/09/14 05:09:53;;;;;;;9.80;8.90;;;17.00;72.90;;;;;;5011025;28;20037;-83
2021/09/14 05:12:20;;;;;;;8.35;7.50;;;17.00;73.00;;;;;;5015405;28;21903;-84
2021/09/14 05:14:46;;;;;;;10.40;9.20;;;17.00;73.00;;;;;;5028721;28;20033;-88
2021/09/14 05:17:30;;;;;;;10.02;8.98;;;17.00;73.00;;;;;;5044732;28;20383;-85
2021/09/14 05:20:02;;;;;;;8.38;7.57;;;17.00;73.00;;;;;;5014901;28;20025;-86
2021/09/14 05:22:32;;;;;;;8.93;8.00;;;16.90;72.80;;;;;;5013390;28;20037;-86
2021/09/14 05:25:00;;;;;;;14.00;8.10;;;17.00;73.00;;;;;;5013943;28;20489;-85
2021/09/14 05:27:26;;;;;;;8.93;7.72;;;17.00;73.60;;;;;;4998495;28;20040;-82
2021/09/14 05:29:52;;;;;;;8.45;7.55;;;17.00;73.10;;;;;;5033981;28;20044;-87
2021/09/14 05:32:18;;;;;;;8.40;7.60;;;17.00;73.10;;;;;;5012517;28;20034;-85
2021/09/14 05:34:46;;;;;;;8.57;6.68;;;16.90;72.90;;;;;;5028485;28;20072;-87
2021/09/14 05:37:15;;;;;;;10.70;8.77;;;16.90;73.00;;;;;;5019139;28;20029;-88
2021/09/14 05:39:42;;;;;;;8.38;7.47;;;16.90;73.00;;;;;;5008716;28;20087;-84
2021/09/14 05:42:08;;;;;;;7.40;6.70;;;16.90;73.10;;;;;;5011890;28;20022;-87
2021/09/14 05:44:35;;;;;;;;;;;16.90;73.20;;;;;;5025564;28;20029;-85
2021/09/14 05:47:05;;;;;;;;;;;16.90;73.10;;;;;;5045053;28;19969;-91
2021/09/14 05:49:32;;;;;;;;;;;16.90;72.90;;;;;;5029606;28;19986;-92
2021/09/14 05:51:59;;;;;;;;;;;16.90;72.80;;;;;;5012013;28;19909;-85
2021/09/14 05:54:25;;;;;;;;;;;16.90;72.70;;;;;;5022964;28;19928;-92
2021/09/14 05:56:55;;;;;;;;;;;16.90;72.60;;;;;;5031134;28;19923;-89
2021/09/14 05:59:21;;;;;;;;;;;16.90;72.60;;;;;;5030437;28;19909;-83
2021/09/14 06:01:47;;;;;;;;;;;16.90;72.60;;;;;;5014283;28;19909;-87
2021/09/14 06:04:13;;;;;;;;;;;16.90;72.50;;;;;;5030281;28;20272;-90
2021/09/14 06:06:39;;;;;;;;;;;16.90;72.50;;;;;;5050300;28;20371;-87
2021/09/14 06:09:08;;;;;;;;;;;16.90;72.50;;;;;;5037969;28;19916;-86
2021/09/14 06:11:37;;;;;;;;;;;16.90;72.50;;;;;;5054765;28;19916;-85
2021/09/14 06:14:04;;;;;;;;;;;16.90;72.50;;;;;;5020491;28;19915;-87
2021/09/14 06:16:32;;;;;;;;;;;16.90;73.00;;;;;;4999388;28;19999;-85
2021/09/14 06:18:59;;;;;;;;;;;17.00;72.70;;;;;;5025552;28;20042;-83
2021/09/14 06:21:26;;;;;;;;;;;17.00;72.60;;;;;;5036842;28;19978;-86
2021/09/14 06:23:53;;;;;;;;;;;17.00;72.60;;;;;;5025339;28;20007;-84
2021/09/14 06:26:19;;;;;;;;;;;17.00;72.60;;;;;;5029955;28;19916;-84
2021/09/14 06:28:46;;;;;;;;;;;17.00;72.50;;;;;;5041723;28;20319;-84
2021/09/14 06:31:13;;;;;;;;;;;17.00;72.50;;;;;;5032839;28;19920;-92
2021/09/14 06:33:39;;;;;;;;;;;17.00;72.50;;;;;;5049227;28;19916;-81
2021/09/14 06:36:05;;;;;;;;;;;17.00;72.40;;;;;;5048951;28;19928;-82
2021/09/14 06:38:33;;;;;;;;;;;17.00;72.40;;;;;;5063770;28;19920;-91
2021/09/14 06:40:59;;;;;;;;;;;17.00;72.40;;;;;;5018092;28;19963;-85
2021/09/14 06:43:34;;;;;;;;;;;17.00;72.30;;;;;;5063091;28;19926;-87
2021/09/14 06:46:20;;;;;;;;;;;17.00;72.30;;;;;;5071247;28;20319;-88
2021/09/14 06:48:54;;;;;;;;;;;17.00;72.30;;;;;;5065908;28;19924;-84
2021/09/14 06:51:19;;;;;;;;;;;17.00;72.30;;;;;;5065965;28;20014;-82
2021/09/14 06:53:45;;;;;;;;;;;17.00;72.20;;;;;;5092021;28;20113;-85
2021/09/14 06:56:11;;;;;;;;;;;17.00;72.20;;;;;;5069808;28;19924;-80
2021/09/14 06:58:40;;;;;;;;;;;17.00;72.20;;;;;;5080027;28;19919;-83
2021/09/14 07:01:06;;;;;;;;;;;16.90;72.00;;;;;;5049416;28;20007;-85
2021/09/14 07:03:32;;;;;;;;;;;16.90;72.00;;;;;;5038620;28;19908;-81
2021/09/14 07:05:58;;;;;;;;;;;17.00;72.20;;;;;;5049017;28;20362;-81
2021/09/14 07:08:24;;;;;;;;;;;16.90;72.00;;;;;;5058634;28;20304;-85
2021/09/14 07:10:50;;;;;;;;;;;17.00;72.10;;;;;;5069342;28;19951;-82
2021/09/14 07:13:15;;;;;;;;;;;16.90;72.00;;;;;;5035449;28;19923;-82
2021/09/14 07:15:41;;;;;;;;;;;17.00;72.10;;;;;;5070050;28;19920;-84
2021/09/14 07:18:08;;;;;;;;;;;16.90;71.90;;;;;;5046678;28;19908;-82
2021/09/14 07:20:34;;;;;;;;;;;16.90;71.90;;;;;;5034214;28;19909;-84
2021/09/14 07:23:00;;;;;;;;;;;16.90;71.90;;;;;;5044879;28;19970;-81
2021/09/14 07:25:26;;;;;;;;;;;16.90;71.90;;;;;;5022034;28;19971;-88
2021/09/14 07:27:52;;;;;;;;;;;17.00;72.00;;;;;;5021953;28;20333;-89
2021/09/14 07:30:19;;;;;;;;;;;16.90;71.80;;;;;;5052373;28;19912;-86
2021/09/14 07:32:45;;;;;;;;;;;17.00;71.90;;;;;;5070224;28;19919;-88
2021/09/14 07:35:11;;;;;;;;;;;17.00;71.90;;;;;;5045636;28;19920;-84
2021/09/14 07:37:38;;;;;;;;;;;17.00;71.90;;;;;;5025492;28;19943;-80
2021/09/14 07:40:04;;;;;;;;;;;16.90;71.70;;;;;;5051938;28;19923;-84
2021/09/14 07:42:30;;;;;;;;;;;16.90;71.70;;;;;;5069421;28;20375;-85
2021/09/14 07:44:56;;;;;;;;;;;16.90;71.70;;;;;;5052256;28;19919;-89
2021/09/14 07:47:22;;;;;;;;;;;17.00;71.80;;;;;;5063861;28;20000;-83
2021/09/14 07:49:47;;;;;;;;;;;17.00;71.80;;;;;;5035204;28;19970;-83
2021/09/14 07:52:13;;;;;;;;;;;17.00;71.70;;;;;;5066089;28;19912;-83
2021/09/14 07:54:40;;;;;;;;;;;17.00;71.70;;;;;;5033636;28;19937;-83
2021/09/14 07:57:06;;;;;;;;;;;17.00;71.70;;;;;;5066995;28;19913;-83
2021/09/14 07:59:34;;;;;;;;;;;17.10;71.90;;;;;;5068617;28;20357;-86
2021/09/14 08:02:00;;;;;;;;;;;17.10;71.80;;;;;;5067130;28;19913;-82
2021/09/14 08:04:26;;;;;;;;;;;17.20;71.80;;;;;;5067540;28;19969;-83
2021/09/14 08:06:51;;;;;;;;;;;17.30;71.90;;;;;;5066722;28;20285;-84
2021/09/14 08:09:17;;;;;;;;;;;17.30;71.80;;;;;;5050200;28;19918;-85
2021/09/14 08:11:43;;;;;;;;;;;17.40;71.90;;;;;;5068094;28;19909;-85
2021/09/14 08:14:09;;;;;;;;;;;17.40;71.80;;;;;;5030987;28;19944;-84
2021/09/14 08:16:35;;;;;;;;;;;17.50;71.90;;;;;;5034041;28;20174;-85
2021/09/14 08:19:00;;;;;;;;;;;17.50;71.80;;;;;;5060684;28;20398;-82
2021/09/14 08:21:26;;;;;;;;;;;17.60;71.90;;;;;;5033957;28;20402;-86
2021/09/14 08:23:56;;;;;;;;;;;17.60;71.80;;;;;;5034686;28;20260;-84
2021/09/14 08:26:22;;;;;;;;;;;17.60;71.70;;;;;;5033516;28;19916;-82
2021/09/14 08:28:48;;;;;;;;;;;17.70;71.90;;;;;;5049574;28;19908;-84
2021/09/14 08:31:20;;;;;;;;;;;17.70;71.80;;;;;;5050404;28;19959;-83
2021/09/14 08:33:46;;;;;;;;;;;17.80;71.90;;;;;;5032893;28;19955;-83
2021/09/14 08:36:12;;;;;;;;;;;17.80;71.80;;;;;;5067621;28;19960;-82
2021/09/14 08:38:38;;;;;;;;;;;17.90;71.90;;;;;;5067605;28;20052;-83
2021/09/14 08:41:05;;;;;;;;;;;18.00;71.90;;;;;;5049516;28;19913;-83
2021/09/14 08:43:31;;;;;;;;;;;18.00;71.90;;;;;;5033034;28;20334;-84
2021/09/14 08:45:56;;;;;;;;;;;18.10;71.90;;;;;;5049515;28;19908;-83
2021/09/14 08:48:22;;;;;;;;;;;18.10;71.80;;;;;;5028052;28;19920;-83
2021/09/14 08:50:48;;;;;;;;;;;18.20;71.90;;;;;;5049826;28;20363;-84
2021/09/14 08:53:15;;;;;;;;;;;18.20;71.80;;;;;;5018803;28;19981;-86
2021/09/14 08:55:41;;;;;;;;;;;18.30;71.90;;;;;;5009304;28;19921;-82
2021/09/14 08:58:09;;;;;;;;;;;18.30;71.80;;;;;;5022602;28;20355;-85
2021/09/14 09:00:36;;;;;;;;;;;18.40;72.00;;;;;;5034575;28;19912;-84
2021/09/14 09:03:02;;;;;;;;;;;18.40;71.90;;;;;;5032661;28;19961;-82
2021/09/14 09:05:33;;;;;;;;;;;18.50;71.90;;;;;;5030014;28;20338;-83
2021/09/14 09:07:59;;;;;;;;;;;18.60;72.00;;;;;;5018101;28;20370;-83
2021/09/14 09:10:25;;;;;;;;;;;18.60;72.00;;;;;;5067143;28;20117;-83
2021/09/14 09:12:51;;;;;;;;;;;18.70;72.10;;;;;;5065258;28;20038;-82
2021/09/14 09:15:24;;;;;;;;;;;18.70;72.00;;;;;;5049877;28;19916;-84
2021/09/14 09:18:04;;;;;;;;;;;18.80;72.10;;;;;;5038070;28;19908;-83
2021/09/14 09:20:31;;;;;;;;;;;18.90;72.10;;;;;;5046479;28;20255;-85
2021/09/14 09:23:01;;;;;;;;;;;19.00;72.20;;;;;;5035197;28;19912;-84
2021/09/14 09:25:27;;;;;;;;;;;19.00;72.00;;;;;;5030509;28;19912;-81
2021/09/14 09:28:07;;;;;;;;;;;19.10;72.10;;;;;;5062905;28;20354;-85
2021/09/14 09:30:35;;;;;;;;;;;19.20;72.20;;;;;;5046934;28;19948;-84
2021/09/14 09:33:03;;;;;;;;;;;19.30;72.20;;;;;;5019090;28;20367;-84
2021/09/14 09:35:31;;;;;;;;;;;19.40;72.30;;;;;;5031685;28;20011;-83
2021/09/14 09:37:58;;;;;;;;;;;19.40;72.20;;;;;;5064706;28;20369;-85
2021/09/14 09:40:26;;;;;;;;;;;19.50;72.30;;;;;;5032220;28;20309;-83
2021/09/14 09:42:52;;;;;;;;;;;19.60;72.30;;;;;;5025202;28;20356;-84
2021/09/14 09:45:19;;;;;;;;;;;19.60;72.20;;;;;;5027105;28;19962;-82
2021/09/14 09:47:48;;;;;;;;;;;19.70;72.40;;;;;;5040032;28;19925;-85
2021/09/14 09:50:14;;;;;;;;;;;19.80;72.40;;;;;;5006596;28;19955;-84
2021/09/14 09:52:43;;;;;;;;;;;19.90;72.50;;;;;;5032138;28;19912;-82
2021/09/14 09:55:10;;;;;;;;;;;20.00;72.60;;;;;;5066361;28;19958;-83
2021/09/14 09:57:36;;;;;;;;;;;20.10;73.10;;;;;;5031537;28;19923;-82
2021/09/14 10:00:07;;;;;;;;;;;20.20;72.60;;;;;;5048205;28;20018;-83
2021/09/14 10:03:01;;;;;;;;;;;20.30;72.60;;;;;;5065990;28;20026;-84
2021/09/14 10:05:34;;;;;;;;;;;20.40;72.60;;;;;;5040406;28;20290;-83
2021/09/14 10:08:10;;;;;;;;;;;20.40;72.40;;;;;;5048292;28;19908;-84
2021/09/14 10:10:37;;;;;;;;;;;20.50;72.50;;;;;;5031988;28;19910;-83
2021/09/14 10:13:04;;;;;;;;;;;20.60;72.60;;;;;;5047148;28;19944;-85
2021/09/14 10:15:43;;;;;;;;;;;20.60;72.50;;;;;;5028822;28;19967;-81
2021/09/14 10:18:10;;;;;;;;;;;20.80;72.80;;;;;;5034242;28;20038;-81
2021/09/14 10:20:37;;;;;;;;;;;20.80;72.70;;;;;;5065665;28;20071;-83
2021/09/14 10:23:05;;;;;;;;;;;20.80;72.70;;;;;;5036959;28;19973;-84
2021/09/14 10:25:31;;;;;;;;;;;20.80;72.70;;;;;;5051118;28;19936;-82
2021/09/14 10:28:08;;;;;;;;;;;20.80;72.80;;;;;;5084639;28;20370;-82
2021/09/14 10:30:35;;;;;;;;;;;20.70;72.60;;;;;;5051266;28;19928;-90
2021/09/14 10:33:01;;;;;;;;;;;20.70;72.70;;;;;;5045398;28;19919;-84
2021/09/14 10:35:28;;;;;;;;;;;20.70;72.80;;;;;;5035780;28;19924;-83
2021/09/14 10:38:08;;;;;;;;;;;20.80;72.90;;;;;;5033417;28;19954;-82
2021/09/14 10:40:42;;;;;;;;;;;20.80;72.80;;;;;;5050489;28;20426;-83
2021/09/14 10:43:08;;;;;;;;;;;20.90;73.00;;;;;;5033311;28;19916;-84
2021/09/14 10:45:42;;;;;;;;;;;20.90;72.90;;;;;;5053044;28;19912;-84
2021/09/14 10:48:17;;;;;;;;;;;21.00;73.00;;;;;;5057595;28;19939;-88
2021/09/14 10:50:43;;;;;;;;;;;21.00;72.90;;;;;;5042924;28;20135;-92
2021/09/14 10:53:09;;;;;;;;;;;21.10;73.10;;;;;;5025986;28;20380;-88
2021/09/14 10:55:36;;;;;;;;;;;21.10;73.00;;;;;;5045580;28;19939;-87
2021/09/14 10:58:02;;;;;;;;;;;21.10;73.00;;;;;;5039174;28;20013;-87
2021/09/14 11:00:31;;;;;;;;;;;21.20;73.10;;;;;;5041162;28;19927;-81
2021/09/14 11:03:00;;;;;;;;;;;21.30;73.20;;;;;;5073409;28;20381;-82
2021/09/14 11:05:30;;;;;;;;;;;21.40;73.30;;;;;;5038901;28;19912;-85
2021/09/14 11:07:57;;;;;;;;;;;21.40;73.20;;;;;;5056991;28;20363;-82
2021/09/14 11:10:23;;;;;;;;;;;21.50;73.30;;;;;;5070324;28;19908;-85
2021/09/14 11:12:49;;;;;;;;;;;21.60;73.40;;;;;;5070609;28;19908;-82
2021/09/14 11:15:16;;;;;;;;;;;21.70;73.40;;;;;;5038101;28;19940;-85
2021/09/14 11:17:47;;;;;;;;;;;21.80;73.50;;;;;;5038471;28;19913;-85
2021/09/14 11:20:15;;;;;;;;;;;21.90;73.60;;;;;;5069652;28;20244;-84
2021/09/14 11:22:42;;;;;;;;;;;22.00;73.70;;;;;;5052096;28;19924;-87
2021/09/14 11:25:18;;;;;;;;;;;22.10;73.70;;;;;;5071049;28;19912;-85
2021/09/14 11:27:56;;;;;;;;;;;22.30;73.80;;;;;;5035176;28;19955;-87
2021/09/14 11:30:22;;;;;;;;;;;22.40;73.80;;;;;;5069115;28;19944;-83
2021/09/14 11:32:48;;;;;;;;;;;22.50;73.80;;;;;;5052263;28;19956;-85
2021/09/14 11:35:15;;;;;;;;;;;22.60;73.80;;;;;;5050686;28;19983;-85
2021/09/14 11:37:41;;;;;;;;;;;22.70;73.80;;;;;;5013797;28;20337;-84
2021/09/14 11:40:20;;;;;;;;;;;22.80;73.90;;;;;;5031744;28;19970;-82
2021/09/14 11:42:53;;;;;;;;;;;22.90;73.90;;;;;;5027644;28;19961;-83
2021/09/14 11:45:21;;;;;;;;;;;23.10;74.00;;;;;;5032400;28;19908;-84
2021/09/14 11:47:47;;;;;;;;;;;23.20;73.90;;;;;;5023846;28;19921;-85
2021/09/14 11:50:22;;;;;;;;;;;23.40;74.10;;;;;;5051419;28;19958;-86
2021/09/14 11:52:48;;;;;;;;;;;23.50;74.00;;;;;;5067506;28;19912;-82
2021/09/14 11:55:14;;;;;;;;;;;23.60;73.90;;;;;;5033881;28;20020;-82
2021/09/14 11:57:39;;;;;;;;;;;23.80;74.10;;;;;;5069180;28;19996;-82
2021/09/14 12:00:12;;;;;;;;;;;23.90;74.10;;;;;;5050734;28;19916;-84
2021/09/14 12:02:47;;;;;;;;;;;23.90;73.90;;;;;;5067687;28;19931;-84
2021/09/14 12:05:18;;;;;;;;;;;24.00;74.00;;;;;;5066534;28;19908;-87
2021/09/14 12:07:53;;;;;;;;;;;24.00;74.00;;;;;;5066326;28;20082;-80
2021/09/14 12:10:19;;;;;;;;;;;24.00;74.00;;;;;;5038758;28;19966;-83
2021/09/14 12:12:49;;;;;;;;;;;23.90;73.80;;;;;;5036758;28;19913;-82
2021/09/14 12:15:15;;;;;;;;;;;23.90;74.00;;;;;;5050619;28;19916;-87
2021/09/14 12:17:41;;;;;;;;;;;23.80;73.90;;;;;;5044403;28;20364;-86
2021/09/14 12:20:07;;;;;;;;;;;23.80;74.00;;;;;;5033674;28;19908;-81
2021/09/14 12:22:33;;;;;;;;;;;23.80;74.10;;;;;;5066905;28;20171;-83
2021/09/14 12:24:59;;;;;;;;;;;23.80;74.00;;;;;;5049482;28;20288;-83
2021/09/14 12:27:24;;;;;;;;;;;23.90;74.10;;;;;;5067440;28;19908;-83
2021/09/14 12:31:50;;;;;;;;;;;24.00;73.60;;;;;;5165619;27;20381;-84
2021/09/14 12:34:16;;;;;;;;;;;24.00;73.90;;;;;;5164553;27;19917;-83
2021/09/14 12:36:42;;;;;;;;;;;24.10;73.90;;;;;;5158776;27;19915;-84
2021/09/14 12:39:11;;;;;;;;;;;24.10;73.70;;;;;;5132414;27;19990;-83
2021/09/14 12:41:37;;;;;;;;;;;24.10;73.70;;;;;;5146001;27;19973;-84
2021/09/14 12:44:05;;;;;;;;;;;24.00;73.50;;;;;;5151370;27;19922;-84
2021/09/14 12:46:31;;;;;;;;;;;23.90;73.30;;;;;;5126723;27;19992;-85
2021/09/14 12:48:57;;;;;;;;;;;23.90;73.40;;;;;;5117652;27;19970;-85
2021/09/14 12:51:23;;;;;;;;;;;23.80;73.20;;;;;;5124920;28;19976;-84
2021/09/14 12:53:51;;;;;;;;;;;23.80;73.30;;;;;;5119514;27;20037;-86
2021/09/14 12:56:18;;;;;;;;;;;23.70;73.10;;;;;;5126432;27;20375;-84
2021/09/14 12:58:44;;;;;;;;;;;23.60;73.00;;;;;;5126633;27;19911;-84
2021/09/14 13:01:10;;;;;;;;;;;23.60;73.10;;;;;;5126951;27;20007;-85
2021/09/14 13:03:36;;;;;;;;;;;23.40;72.80;;;;;;5145536;27;20014;-85
2021/09/14 13:06:03;;;;;;;;;;;23.40;72.90;;;;;;5126566;27;20400;-83
2021/09/14 13:08:28;;;;;;;;;;;23.40;72.90;;;;;;5136965;27;19918;-83
2021/09/14 13:10:56;;;;;;;;;;;23.40;72.90;;;;;;5123658;28;19923;-83
2021/09/14 13:16:15;;;;;;;;;;;23.30;72.60;;;;;;5126319;27;20353;-83
2021/09/14 13:18:42;;;;;;;;;;;23.20;72.60;;;;;;5105741;28;20006;-82
2021/09/14 13:21:08;;;;;;;;;;;23.10;72.50;;;;;;5125832;27;20377;-84
2021/09/14 13:23:34;;;;;;;;;;;23.00;72.50;;;;;;5125212;27;19935;-82
2021/09/14 13:26:00;;;;;;;;;;;22.80;72.30;;;;;;5125967;27;20369;-82
2021/09/14 13:28:26;;;;;;;;;;;22.70;72.30;;;;;;5144431;27;19934;-81
2021/09/14 13:30:52;;;;;;;;;;;22.60;72.30;;;;;;5142667;27;20331;-81
2021/09/14 13:33:18;;;;;;;;;;;22.50;72.30;;;;;;5143137;27;19912;-80
2021/09/14 13:35:44;;;;;;;;;;;22.40;72.20;;;;;;5125000;27;20142;-80
2021/09/14 13:38:10;;;;;;;;;;;22.30;72.20;;;;;;5145066;27;19919;-81
2021/09/14 13:40:38;;;;;;;;;;;22.20;72.10;;;;;;5126935;27;19918;-82
2021/09/14 13:43:04;;;;;;;;;;;22.10;72.10;;;;;;5113803;27;20300;-80
2021/09/14 13:48:20;;;;;;;;;;;22.00;72.00;;;;;;5129628;27;19911;-80
2021/09/14 13:50:46;;;;;;;;;;;22.00;72.10;;;;;;5095394;27;19964;-80
2021/09/14 13:53:12;;;;;;;;;;;22.00;72.00;;;;;;5130324;27;19915;-80
2021/09/14 13:55:38;;;;;;;;;;;22.00;71.90;;;;;;5130180;27;19911;-82
2021/09/14 13:58:03;;;;;;;;;;;22.00;71.90;;;;;;5130152;27;19916;-81
2021/09/14 14:00:29;;;;;;;;;;;22.00;71.80;;;;;;5105281;27;19911;-83
2021/09/14 14:02:55;;;;;;;;;;;22.10;71.90;;;;;;5127344;27;19965;-83
2021/09/14 14:05:21;;;;;;;;;;;22.10;71.80;;;;;;5128756;27;19911;-83
2021/09/14 14:07:47;;;;;;;;;;;22.10;71.70;;;;;;5111972;27;20389;-82
2021/09/14 14:10:13;;;;;;;;;;;22.10;71.70;;;;;;5142959;27;19923;-84
2021/09/14 14:12:39;;;;;;;;;;;22.10;71.70;;;;;;5145850;27;20097;-84
2021/09/14 14:15:05;;;;;;;;;;;22.20;71.70;;;;;;5129601;27;19922;-83
2021/09/14 14:17:31;;;;;;;;;;;22.20;71.60;;;;;;5148239;27;19915;-82
2021/09/14 14:19:57;;;;;;;;;;;22.20;71.60;;;;;;5149631;27;19922;-85
2021/09/14 14:22:25;;;;;;;;;;;22.20;71.50;;;;;;5115018;27;19965;-83
2021/09/14 14:24:51;;;;;;;;;;;22.10;71.40;;;;;;5094866;27;19916;-85
2021/09/14 14:27:17;;;;;;;;;;;22.10;71.50;;;;;;5094369;27;20311;-82
2021/09/14 14:29:43;;;;;;;;;;;22.00;71.40;;;;;;5129425;27;20361;-83
2021/09/14 14:32:09;;;;;;;;;;;22.00;71.50;;;;;;5129274;27;20002;-84
2021/09/14 14:34:34;;;;;;;;;;;21.90;71.40;;;;;;5129824;27;19911;-83
2021/09/14 14:37:00;;;;;;;;;;;21.90;71.40;;;;;;5093950;27;19916;-82
2021/09/14 14:39:26;;;;;;;;;;;21.90;71.40;;;;;;5129048;27;20369;-85
2021/09/14 14:41:52;;;;;;;;;;;21.80;71.30;;;;;;5129380;27;19915;-85
2021/09/14 14:44:18;;;;;;;;;;;21.70;71.20;;;;;;5129247;27;19941;-87
2021/09/14 14:46:44;;;;;;;;;;;21.70;71.20;;;;;;5110742;27;19918;-85
2021/09/14 14:49:10;;;;;;;;;;;21.80;71.40;;;;;;5121748;27;20281;-85
2021/09/14 14:51:36;;;;;;;;;;;21.80;71.40;;;;;;5129393;27;19923;-83
2021/09/14 14:54:02;;;;;;;;;;;21.80;71.30;;;;;;5109227;27;20355;-85